createdAt,value
2018-01-28T00:02:11.527Z,6.30
2018-01-28T00:04:40.842Z,5.70
2018-01-28T00:07:10.858Z,8.20
2018-01-28T00:09:40.310Z,6.10
2018-01-28T00:12:10.330Z,4.77
2018-01-28T00:14:40.482Z,6.07
2018-01-28T00:17:09.706Z,5.93
2018-01-28T00:19:39.444Z,7.13
2018-01-28T00:22:08.633Z,8.57
2018-01-28T00:24:38.644Z,9.53
2018-01-28T00:27:08.006Z,7.20
2018-01-28T00:29:37.225Z,7.07
2018-01-28T00:32:06.451Z,4.90
2018-01-28T00:34:35.650Z,5.70
2018-01-28T00:37:05.658Z,5.70
2018-01-28T00:39:35.642Z,8.20
2018-01-28T00:42:04.948Z,7.67
2018-01-28T00:44:34.151Z,8.10
2018-01-28T00:47:04.253Z,4.97
2018-01-28T00:49:34.302Z,6.90
2018-01-28T00:52:03.631Z,8.60
2018-01-28T00:54:32.849Z,5.90
2018-01-28T00:57:02.252Z,6.10
2018-01-28T00:59:31.530Z,4.60
2018-01-28T01:02:00.755Z,4.50
2018-01-28T01:04:30.004Z,4.37
2018-01-28T01:06:59.968Z,5.67
2018-01-28T01:09:29.181Z,4.87
2018-01-28T01:11:58.403Z,5.67
2018-01-28T01:14:27.684Z,5.13
2018-01-28T01:16:56.905Z,4.03
2018-01-28T01:19:26.896Z,3.83
2018-01-28T01:21:56.144Z,7.27
2018-01-28T01:24:25.394Z,5.10
2018-01-28T01:26:54.591Z,5.63
2018-01-28T01:29:23.859Z,5.83
2018-01-28T01:31:53.093Z,4.80
2018-01-28T01:34:22.411Z,5.20
2018-01-28T01:36:51.769Z,4.27
2018-01-28T01:39:20.954Z,3.17
2018-01-28T01:41:50.171Z,4.10
2018-01-28T01:44:19.438Z,3.57
2018-01-28T01:46:48.662Z,4.37
2018-01-28T01:49:35.455Z,4.37
2018-01-28T01:52:04.685Z,3.80
2018-01-28T01:54:33.954Z,4.63
2018-01-28T01:57:03.162Z,4.10
2018-01-28T01:59:32.351Z,4.10
2018-01-28T02:02:01.678Z,2.40
2018-01-28T02:04:31.769Z,3.40
2018-01-28T02:07:01.004Z,3.33
2018-01-28T02:09:30.217Z,3.93
2018-01-28T02:12:00.178Z,2.40
2018-01-28T02:14:29.446Z,6.37
2018-01-28T02:16:59.411Z,2.87
2018-01-28T02:19:28.642Z,3.40
2018-01-28T02:21:57.867Z,2.50
2018-01-28T02:24:27.082Z,2.60
2018-01-28T02:26:56.359Z,3.27
2018-01-28T02:29:26.348Z,4.03
2018-01-28T02:31:55.537Z,4.73
2018-01-28T02:34:24.759Z,3.07
2018-01-28T02:36:53.950Z,3.50
2018-01-28T02:39:23.280Z,5.70
2018-01-28T02:41:52.486Z,3.03
2018-01-28T02:44:21.714Z,6.40
2018-01-28T02:46:50.943Z,4.23
2018-01-28T02:49:20.908Z,4.00
2018-01-28T02:51:50.130Z,3.67
2018-01-28T02:54:19.358Z,4.17
2018-01-28T02:56:48.566Z,3.70
2018-01-28T02:59:17.769Z,3.97
2018-01-28T03:01:46.991Z,3.40
2018-01-28T03:04:16.282Z,3.30
2018-01-28T03:06:45.557Z,3.30
2018-01-28T03:09:14.870Z,4.70
2018-01-28T03:11:44.081Z,3.60
2018-01-28T03:14:14.088Z,7.50
2018-01-28T03:16:43.295Z,4.43
2018-01-28T03:19:12.498Z,4.27
2018-01-28T03:21:41.723Z,4.67
2018-01-28T03:24:10.950Z,5.30
2018-01-28T03:26:40.921Z,4.17
2018-01-28T03:29:10.162Z,3.70
2018-01-28T03:31:40.174Z,3.90
2018-01-28T03:34:09.459Z,4.20
2018-01-28T03:36:38.658Z,4.57
2018-01-28T03:39:07.861Z,3.93
2018-01-28T03:41:37.894Z,4.30
2018-01-28T03:44:07.182Z,5.40
2018-01-28T03:46:36.390Z,4.27
2018-01-28T03:49:05.839Z,4.87
2018-01-28T03:51:35.242Z,4.60
2018-01-28T03:54:04.442Z,4.77
2018-01-28T03:56:33.747Z,4.77
2018-01-28T03:59:02.951Z,4.90
2018-01-28T04:01:32.194Z,5.30
2018-01-28T04:04:01.406Z,4.93
2018-01-28T04:06:30.622Z,4.97
2018-01-28T04:08:59.843Z,5.90
2018-01-28T04:11:29.046Z,4.57
2018-01-28T04:13:58.280Z,5.63
2018-01-28T04:16:28.249Z,4.90
2018-01-28T04:18:57.467Z,4.97
2018-01-28T04:21:26.697Z,4.80
2018-01-28T04:23:55.903Z,5.37
2018-01-28T04:26:25.130Z,4.47
2018-01-28T04:28:54.378Z,5.13
2018-01-28T04:31:24.348Z,4.47
2018-01-28T04:33:53.619Z,5.30
2018-01-28T04:36:22.810Z,5.40
2018-01-28T04:38:52.054Z,6.20
2018-01-28T04:41:21.246Z,5.63
2018-01-28T04:43:50.470Z,6.63
2018-01-28T04:46:19.699Z,5.80
2018-01-28T04:48:49.650Z,5.80
2018-01-28T04:51:18.857Z,5.00
2018-01-28T04:53:48.060Z,6.27
2018-01-28T04:56:17.279Z,4.47
2018-01-28T04:58:46.467Z,5.70
2018-01-28T05:01:17.203Z,7.00
2018-01-28T05:03:46.398Z,5.70
2018-01-28T05:06:15.613Z,6.33
2018-01-28T05:08:45.587Z,4.80
2018-01-28T05:11:14.788Z,4.20
2018-01-28T05:13:44.078Z,5.50
2018-01-28T05:16:13.285Z,5.33
2018-01-28T05:18:42.503Z,4.43
2018-01-28T05:21:12.599Z,4.53
2018-01-28T05:23:42.013Z,4.87
2018-01-28T05:26:11.265Z,6.43
2018-01-28T05:28:40.558Z,5.10
2018-01-28T05:31:09.738Z,4.57
2018-01-28T05:33:39.783Z,4.73
2018-01-28T05:36:08.965Z,4.80
2018-01-28T05:38:38.232Z,4.30
2018-01-28T05:41:07.447Z,4.30
2018-01-28T05:43:38.174Z,4.80
2018-01-28T05:46:08.167Z,4.20
2018-01-28T05:48:37.430Z,4.30
2018-01-28T05:51:06.614Z,4.93
2018-01-28T05:53:35.846Z,4.43
2018-01-28T05:56:05.031Z,4.73
2018-01-28T05:58:34.216Z,5.33
2018-01-28T06:01:03.455Z,4.60
2018-01-28T06:03:34.212Z,4.17
2018-01-28T06:06:04.218Z,5.43
2018-01-28T06:08:34.194Z,4.50
2018-01-28T06:11:03.525Z,4.50
2018-01-28T06:13:32.671Z,4.00
2018-01-28T06:16:01.983Z,4.17
2018-01-28T06:18:31.277Z,5.47
2018-01-28T06:21:00.490Z,4.80
2018-01-28T06:23:29.701Z,6.00
2018-01-28T06:25:58.919Z,5.37
2018-01-28T06:28:28.136Z,7.60
2018-01-28T06:30:58.084Z,8.07
2018-01-28T06:33:27.307Z,9.97
2018-01-28T06:35:56.515Z,7.40
2018-01-28T06:38:25.729Z,9.53
2018-01-28T06:40:55.729Z,10.33
2018-01-28T06:43:24.956Z,12.17
2018-01-28T06:45:54.927Z,11.30
2018-01-28T06:48:24.167Z,11.13
2018-01-28T06:50:53.350Z,14.40
2018-01-28T06:53:23.379Z,14.00
2018-01-28T06:55:53.351Z,13.03
2018-01-28T06:58:22.596Z,15.90
2018-01-28T07:00:52.578Z,13.40
2018-01-28T07:03:21.806Z,15.60
2018-01-28T07:05:51.790Z,16.40
2018-01-28T07:08:21.024Z,16.83
2018-01-28T07:10:51.002Z,14.80
2018-01-28T07:13:20.238Z,16.37
2018-01-28T07:15:49.482Z,13.40
2018-01-28T07:18:18.736Z,18.50
2018-01-28T07:20:47.971Z,13.20
2018-01-28T07:23:17.178Z,19.27
2018-01-28T07:25:46.403Z,17.53
2018-01-28T07:28:15.614Z,17.20
2018-01-28T07:30:45.815Z,19.57
2018-01-28T07:33:15.107Z,16.50
2018-01-28T07:35:44.340Z,19.63
2018-01-28T07:38:14.315Z,17.67
2018-01-28T07:40:43.521Z,20.53
2018-01-28T07:43:12.730Z,20.53
2018-01-28T07:45:42.130Z,17.93
2018-01-28T07:48:11.534Z,21.60
2018-01-28T07:50:40.770Z,16.47
2018-01-28T07:53:09.979Z,19.37
2018-01-28T07:55:39.216Z,21.50
2018-01-28T07:58:08.414Z,20.20
2018-01-28T08:00:37.820Z,23.83
2018-01-28T08:03:07.078Z,23.40
2018-01-28T08:05:36.307Z,19.27
2018-01-28T08:08:05.538Z,24.87
2018-01-28T08:10:40.942Z,24.30
2018-01-28T08:13:25.889Z,25.50
2018-01-28T08:15:55.129Z,23.30
2018-01-28T08:18:24.389Z,22.37
2018-01-28T08:20:53.615Z,27.80
2018-01-28T08:23:23.642Z,27.40
2018-01-28T08:25:52.847Z,23.20
2018-01-28T08:28:24.190Z,29.23
2018-01-28T08:30:53.442Z,27.23
2018-01-28T08:33:22.637Z,21.27
2018-01-28T08:35:51.865Z,25.30
2018-01-28T08:38:21.095Z,25.80
2018-01-28T08:40:50.402Z,27.00
2018-01-28T08:43:20.508Z,30.80
2018-01-28T08:45:49.929Z,25.77
2018-01-28T08:48:19.248Z,23.20
2018-01-28T08:50:48.556Z,25.50
2018-01-28T08:53:17.786Z,27.30
2018-01-28T08:55:47.026Z,26.43
2018-01-28T08:58:17.003Z,25.47
2018-01-28T09:00:46.281Z,23.47
2018-01-28T09:03:15.513Z,26.67
2018-01-28T09:05:44.714Z,30.20
2018-01-28T09:08:14.703Z,20.47
2018-01-28T09:10:43.934Z,27.43
2018-01-28T09:13:14.055Z,20.53
2018-01-28T09:15:44.041Z,22.93
2018-01-28T09:18:13.269Z,22.47
2018-01-28T09:20:42.475Z,21.43
2018-01-28T09:23:12.463Z,21.70
2018-01-28T09:25:42.441Z,26.50
2018-01-28T09:28:11.704Z,29.87
2018-01-28T09:30:41.000Z,25.50
2018-01-28T09:33:10.999Z,22.67
2018-01-28T09:35:40.205Z,22.60
2018-01-28T09:38:10.240Z,25.30
2018-01-28T09:40:40.253Z,22.13
2018-01-28T09:43:09.572Z,26.97
2018-01-28T09:45:38.895Z,24.80
2018-01-28T09:48:08.122Z,22.13
2018-01-28T09:50:37.321Z,22.17
2018-01-28T09:53:07.330Z,19.87
2018-01-28T09:55:36.580Z,17.53
2018-01-28T09:58:05.772Z,19.90
2018-01-28T10:00:35.019Z,21.80
2018-01-28T10:03:04.263Z,19.40
2018-01-28T10:05:34.366Z,22.43
2018-01-28T10:08:03.602Z,23.33
2018-01-28T10:10:32.848Z,19.77
2018-01-28T10:13:02.054Z,17.03
2018-01-28T10:15:31.295Z,21.13
2018-01-28T10:18:00.536Z,16.47
2018-01-28T10:20:29.760Z,16.07
2018-01-28T10:22:58.986Z,17.90
2018-01-28T10:25:28.235Z,21.27
2018-01-28T10:27:57.459Z,21.30
2018-01-28T10:30:26.696Z,20.40
2018-01-28T10:32:55.928Z,21.97
2018-01-28T10:35:25.233Z,25.20
2018-01-28T10:37:54.434Z,20.20
2018-01-28T10:40:23.676Z,25.40
2018-01-28T10:42:52.901Z,26.20
2018-01-28T10:45:22.167Z,28.10
2018-01-28T10:47:51.386Z,24.13
2018-01-28T10:50:20.935Z,26.80
2018-01-28T10:52:50.923Z,20.43
2018-01-28T10:55:20.270Z,27.67
2018-01-28T10:57:49.855Z,21.73
2018-01-28T11:00:19.083Z,20.30
2018-01-28T11:02:48.377Z,26.00
2018-01-28T11:05:17.651Z,25.27
2018-01-28T11:07:46.896Z,23.67
2018-01-28T11:10:16.143Z,21.60
2018-01-28T11:12:45.399Z,23.20
2018-01-28T11:15:14.639Z,24.90
2018-01-28T11:17:43.976Z,25.97
2018-01-28T11:20:13.453Z,20.70
2018-01-28T11:22:43.519Z,21.23
2018-01-28T11:25:13.484Z,22.40
2018-01-28T11:27:43.477Z,20.10
2018-01-28T11:30:12.685Z,20.90
2018-01-28T11:32:42.714Z,20.40
2018-01-28T11:35:12.758Z,21.20
2018-01-28T11:37:41.982Z,23.33
2018-01-28T11:40:11.187Z,25.83
2018-01-28T11:42:40.439Z,25.87
2018-01-28T11:45:09.653Z,16.20
2018-01-28T11:47:38.943Z,21.00
2018-01-28T11:50:08.330Z,21.47
2018-01-28T11:52:37.622Z,23.57
2018-01-28T11:55:09.068Z,19.77
2018-01-28T11:57:38.378Z,18.40
2018-01-28T12:00:08.056Z,19.10
2018-01-28T12:02:37.281Z,17.80
2018-01-28T12:05:06.605Z,18.87
2018-01-28T12:07:36.562Z,18.20
2018-01-28T12:10:05.780Z,20.80
2018-01-28T12:12:35.850Z,20.50
2018-01-28T12:15:05.117Z,18.30
2018-01-28T12:17:34.389Z,19.43
2018-01-28T12:20:03.631Z,18.30
2018-01-28T12:22:33.064Z,20.63
2018-01-28T12:25:03.810Z,14.30
2018-01-28T12:27:33.030Z,18.50
2018-01-28T12:30:03.330Z,17.70
2018-01-28T12:32:34.104Z,18.53
2018-01-28T12:35:03.319Z,20.53
2018-01-28T12:37:32.554Z,18.77
2018-01-28T12:40:01.818Z,21.60
2018-01-28T12:42:31.026Z,17.40
2018-01-28T12:45:00.260Z,24.17
2018-01-28T12:47:29.478Z,14.03
2018-01-28T12:50:00.445Z,15.77
2018-01-28T12:52:29.819Z,16.93
2018-01-28T12:54:59.816Z,19.17
2018-01-28T12:57:29.079Z,18.83
2018-01-28T12:59:59.185Z,17.50
2018-01-28T13:02:29.538Z,14.37
2018-01-28T13:04:58.758Z,12.33
2018-01-28T13:07:28.213Z,20.97
2018-01-28T13:09:57.445Z,12.53
2018-01-28T13:12:26.688Z,17.73
2018-01-28T13:14:56.839Z,16.60
2018-01-28T13:17:26.124Z,16.03
2018-01-28T13:19:55.359Z,10.10
2018-01-28T13:22:24.659Z,12.30
2018-01-28T13:24:55.909Z,14.07
2018-01-28T13:27:25.127Z,11.67
2018-01-28T13:29:54.422Z,11.20
2018-01-28T13:32:24.431Z,12.10
2018-01-28T13:34:53.654Z,13.20
2018-01-28T13:37:22.892Z,13.83
2018-01-28T13:39:52.178Z,12.10
2018-01-28T13:42:21.413Z,11.33
2018-01-28T13:44:50.828Z,8.40
2018-01-28T13:47:20.041Z,12.10
2018-01-28T13:49:49.450Z,12.83
2018-01-28T13:52:18.662Z,9.13
2018-01-28T13:54:47.958Z,13.70
2018-01-28T13:57:17.211Z,10.37
2018-01-28T13:59:48.093Z,14.10
2018-01-28T14:02:17.361Z,7.83
2018-01-28T14:04:46.574Z,10.33
2018-01-28T14:07:15.947Z,10.97
2018-01-28T14:09:45.163Z,9.17
2018-01-28T14:12:15.188Z,14.10
2018-01-28T14:14:45.227Z,8.80
2018-01-28T14:17:14.500Z,11.90
2018-01-28T14:19:43.735Z,11.37
2018-01-28T14:22:12.953Z,9.07
2018-01-28T14:24:42.250Z,9.37
2018-01-28T14:27:11.461Z,9.67
2018-01-28T14:29:40.747Z,11.83
2018-01-28T14:32:09.997Z,8.30
2018-01-28T14:34:40.023Z,10.27
2018-01-28T14:37:09.902Z,10.83
2018-01-28T14:39:39.939Z,7.20
2018-01-28T14:42:09.929Z,9.20
2018-01-28T14:44:39.171Z,11.27
2018-01-28T14:47:08.414Z,10.73
2018-01-28T14:49:37.685Z,10.47
2018-01-28T14:52:06.945Z,15.07
2018-01-28T14:54:36.184Z,8.87
2018-01-28T14:57:05.565Z,10.47
2018-01-28T14:59:34.782Z,9.23
2018-01-28T15:02:04.008Z,11.10
2018-01-28T15:04:33.211Z,7.67
2018-01-28T15:07:02.459Z,7.67
2018-01-28T15:09:31.686Z,12.53
2018-01-28T15:12:00.940Z,10.47
2018-01-28T15:14:30.133Z,6.60
2018-01-28T15:17:00.193Z,11.03
2018-01-28T15:19:29.467Z,8.23
2018-01-28T15:21:58.733Z,9.37
2018-01-28T15:24:28.827Z,13.77
2018-01-28T15:26:58.565Z,8.20
2018-01-28T15:29:27.807Z,12.53
2018-01-28T15:31:57.053Z,9.30
2018-01-28T15:34:26.306Z,7.80
2018-01-28T15:36:55.527Z,10.13
2018-01-28T15:39:24.780Z,11.63
2018-01-28T15:41:54.005Z,11.60
2018-01-28T15:44:23.267Z,10.07
2018-01-28T15:46:52.490Z,11.60
2018-01-28T15:49:21.759Z,16.13
2018-01-28T15:51:51.785Z,10.33
2018-01-28T15:54:21.768Z,9.80
2018-01-28T15:56:51.003Z,10.30
2018-01-28T15:59:20.245Z,13.40
2018-01-28T16:01:49.540Z,12.77
2018-01-28T16:04:18.977Z,11.50
2018-01-28T16:06:48.188Z,15.30
2018-01-28T16:09:18.269Z,15.77
2018-01-28T16:11:47.558Z,10.87
2018-01-28T16:14:16.932Z,11.00
2018-01-28T16:16:46.473Z,12.93
2018-01-28T16:19:15.704Z,10.20
2018-01-28T16:21:45.995Z,7.77
2018-01-28T16:24:15.224Z,12.70
2018-01-28T16:26:45.259Z,10.23
2018-01-28T16:29:14.459Z,12.00
2018-01-28T16:31:43.708Z,12.80
2018-01-28T16:34:13.835Z,11.00
2018-01-28T16:36:43.063Z,13.80
2018-01-28T16:39:12.290Z,14.07
2018-01-28T16:41:41.564Z,15.53
2018-01-28T16:44:11.614Z,11.07
2018-01-28T16:46:40.843Z,15.57
2018-01-28T16:49:11.614Z,10.77
2018-01-28T16:51:40.981Z,11.03
2018-01-28T16:54:10.223Z,15.23
2018-01-28T16:56:39.454Z,11.13
2018-01-28T16:59:08.720Z,11.97
2018-01-28T17:01:38.007Z,11.00
2018-01-28T17:04:07.286Z,14.30
2018-01-28T17:06:37.288Z,16.93
2018-01-28T17:09:07.283Z,16.47
2018-01-28T17:11:36.709Z,13.57
2018-01-28T17:14:06.920Z,12.30
2018-01-28T17:16:36.181Z,12.17
2018-01-28T17:19:05.443Z,18.83
2018-01-28T17:21:35.436Z,11.93
2018-01-28T17:24:04.676Z,15.60
2018-01-28T17:26:34.667Z,20.37
2018-01-28T17:29:03.898Z,19.67
2018-01-28T17:31:33.186Z,16.67
2018-01-28T17:34:02.483Z,16.60
2018-01-28T17:36:31.736Z,13.40
2018-01-28T17:39:01.007Z,14.40
2018-01-28T17:41:30.486Z,16.70
2018-01-28T17:44:00.470Z,31.43
2018-01-28T17:46:29.729Z,21.73
2018-01-28T17:48:58.938Z,15.10
2018-01-28T17:51:29.154Z,20.10
2018-01-28T17:53:58.425Z,14.80
2018-01-28T17:56:27.669Z,14.50
2018-01-28T17:58:56.887Z,21.87
2018-01-28T18:01:26.922Z,15.20
2018-01-28T18:03:56.946Z,19.50
2018-01-28T18:06:26.306Z,19.13
2018-01-28T18:08:55.543Z,16.63
2018-01-28T18:11:25.602Z,18.63
2018-01-28T18:13:54.947Z,24.63
2018-01-28T18:16:24.184Z,19.20
2018-01-28T18:18:53.655Z,14.40
2018-01-28T18:21:23.702Z,16.37
2018-01-28T18:23:53.672Z,15.60
2018-01-28T18:26:23.037Z,21.20
2018-01-28T18:28:52.348Z,19.57
2018-01-28T18:31:21.622Z,17.63
2018-01-28T18:33:51.099Z,16.07
2018-01-28T18:36:20.550Z,15.63
2018-01-28T18:38:49.854Z,16.07
2018-01-28T18:41:19.037Z,14.07
2018-01-28T18:43:48.299Z,17.63
2018-01-28T18:46:19.015Z,14.93
2018-01-28T18:48:49.065Z,19.67
2018-01-28T18:51:19.047Z,21.80
2018-01-28T18:53:48.322Z,18.33
2018-01-28T18:56:17.619Z,14.87
2018-01-28T18:58:47.657Z,15.67
2018-01-28T19:01:17.708Z,17.70
2018-01-28T19:03:47.092Z,16.03
2018-01-28T19:06:16.327Z,15.67
2018-01-28T19:08:45.602Z,15.40
2018-01-28T19:11:14.880Z,16.13
2018-01-28T19:13:44.247Z,19.13
2018-01-28T19:16:13.500Z,18.90
2018-01-28T19:18:42.805Z,20.80
2018-01-28T19:21:12.074Z,18.87
2018-01-28T19:23:41.296Z,24.47
2018-01-28T19:26:10.571Z,19.67
2018-01-28T19:28:39.847Z,18.80
2018-01-28T19:31:09.071Z,17.50
2018-01-28T19:33:39.061Z,17.93
2018-01-28T19:36:08.311Z,18.17
2018-01-28T19:38:38.341Z,19.70
2018-01-28T19:41:07.575Z,17.37
2018-01-28T19:43:36.816Z,16.43
2018-01-28T19:46:06.081Z,18.20
2018-01-28T19:48:35.310Z,17.60
2018-01-28T19:51:04.618Z,17.87
2018-01-28T19:53:34.730Z,22.80
2018-01-28T19:56:04.727Z,18.90
2018-01-28T19:58:34.134Z,16.23
2018-01-28T20:01:04.260Z,20.93
2018-01-28T20:03:33.492Z,17.27
2018-01-28T20:06:02.790Z,15.40
2018-01-28T20:08:32.082Z,17.80
2018-01-28T20:11:01.403Z,15.83
2018-01-28T20:13:30.649Z,14.13
2018-01-28T20:15:59.858Z,14.27
2018-01-28T20:18:29.127Z,14.60
2018-01-28T20:20:58.454Z,14.20
2018-01-28T20:23:28.722Z,18.37
2018-01-28T20:25:57.995Z,12.33
2018-01-28T20:28:27.297Z,11.63
2018-01-28T20:30:56.672Z,11.60
2018-01-28T20:33:26.726Z,10.53
2018-01-28T20:35:55.939Z,10.30
2018-01-28T20:38:25.226Z,12.23
2018-01-28T20:40:54.482Z,10.80
2018-01-28T20:43:24.515Z,11.30
2018-01-28T20:45:54.515Z,10.53
2018-01-28T20:48:24.530Z,9.93
2018-01-28T20:50:53.828Z,14.13
2018-01-28T20:53:24.570Z,10.40
2018-01-28T20:55:53.887Z,11.90
2018-01-28T20:58:23.147Z,12.10
2018-01-28T21:00:53.181Z,10.13
2018-01-28T21:03:23.185Z,10.57
2018-01-28T21:05:52.426Z,11.73
2018-01-28T21:08:21.666Z,10.10
2018-01-28T21:10:50.941Z,12.03
2018-01-28T21:13:20.180Z,9.77
2018-01-28T21:15:50.209Z,11.20
2018-01-28T21:18:20.209Z,10.53
2018-01-28T21:20:50.272Z,10.00
2018-01-28T21:23:19.549Z,12.47
2018-01-28T21:25:48.802Z,10.07
2018-01-28T21:28:18.030Z,10.07
2018-01-28T21:30:47.298Z,12.23
2018-01-28T21:33:16.563Z,11.00
2018-01-28T21:35:45.815Z,10.83
2018-01-28T21:38:15.123Z,14.57
2018-01-28T21:40:45.138Z,10.90
2018-01-28T21:43:15.170Z,11.27
2018-01-28T21:45:45.209Z,10.80
2018-01-28T21:48:14.518Z,9.90
2018-01-28T21:50:43.776Z,11.57
2018-01-28T21:53:13.796Z,10.67
2018-01-28T21:55:43.847Z,10.13
2018-01-28T21:58:13.110Z,10.07
2018-01-28T22:00:42.465Z,10.17
2018-01-28T22:03:11.707Z,10.50
2018-01-28T22:05:41.708Z,10.07
2018-01-28T22:08:10.971Z,10.83
2018-01-28T22:10:40.293Z,9.87
2018-01-28T22:13:09.550Z,10.97
2018-01-28T22:15:38.781Z,10.13
2018-01-28T22:18:08.088Z,12.53
2018-01-28T22:20:38.905Z,10.87
2018-01-28T22:23:08.128Z,9.93
2018-01-28T22:25:37.518Z,10.63
2018-01-28T22:28:06.817Z,11.27
2018-01-28T22:30:36.070Z,11.87
2018-01-28T22:33:05.320Z,10.23
2018-01-28T22:35:34.556Z,10.90
2018-01-28T22:38:03.842Z,12.10
2018-01-28T22:40:33.845Z,11.70
2018-01-28T22:43:03.925Z,11.20
2018-01-28T22:45:33.173Z,10.50
2018-01-28T22:48:02.410Z,12.33
2018-01-28T22:50:32.088Z,13.10
2018-01-28T22:53:02.084Z,12.17
2018-01-28T22:55:31.332Z,10.97
2018-01-28T22:58:00.550Z,11.70
2018-01-28T23:00:29.771Z,10.30
2018-01-28T23:02:59.002Z,10.87
2018-01-28T23:05:28.224Z,11.83
2018-01-28T23:07:57.451Z,12.00
2018-01-28T23:10:26.689Z,11.40
2018-01-28T23:12:56.683Z,12.17
2018-01-28T23:15:25.950Z,10.03
2018-01-28T23:17:55.217Z,12.00
2018-01-28T23:20:24.508Z,10.20
2018-01-28T23:22:53.715Z,10.57
2018-01-28T23:25:22.965Z,12.17
2018-01-28T23:27:52.180Z,12.30
2018-01-28T23:30:21.457Z,10.70
2018-01-28T23:32:50.746Z,9.93
2018-01-28T23:35:20.089Z,9.30
2018-01-28T23:37:50.115Z,11.30
2018-01-28T23:40:20.159Z,11.07
2018-01-28T23:42:49.499Z,8.43
2018-01-28T23:45:18.748Z,6.93
2018-01-28T23:47:48.720Z,7.00
2018-01-28T23:50:17.976Z,6.57
2018-01-28T23:52:47.235Z,5.37
2018-01-28T23:55:16.495Z,5.30
2018-01-28T23:57:45.754Z,4.47
